createdAt,value
2022-10-25T00:00:58.189Z,98445.66
2022-10-25T00:03:24.643Z,98456.22
2022-10-25T00:05:51.153Z,98463.38
2022-10-25T00:08:17.692Z,98463.28
2022-10-25T00:10:44.244Z,98458.88
2022-10-25T00:13:10.693Z,98435.84
2022-10-25T00:15:37.575Z,98449.03
2022-10-25T00:18:04.294Z,98440.06
2022-10-25T00:20:30.782Z,98440.91
2022-10-25T00:22:57.742Z,98443.53
2022-10-25T00:25:24.258Z,98434.63
2022-10-25T00:27:50.733Z,98432.84
2022-10-25T00:30:17.402Z,98436.56
2022-10-25T00:32:44.023Z,98433.09
2022-10-25T00:35:10.805Z,98426.88
2022-10-25T00:37:37.525Z,98426.09
2022-10-25T00:40:04.996Z,98424.34
2022-10-25T00:42:31.483Z,98422.41
2022-10-25T00:45:04.269Z,98430.31
2022-10-25T00:47:40.682Z,98426.81
2022-10-25T00:50:20.732Z,98432.06
2022-10-25T00:52:51.245Z,98438.25
2022-10-25T00:55:20.644Z,98432.94
2022-10-25T00:57:54.505Z,98432.94
2022-10-25T01:00:21.625Z,98426.88
2022-10-25T01:02:48.724Z,98438.25
2022-10-25T01:05:16.985Z,98426.81
2022-10-25T01:07:44.278Z,98431.25
2022-10-25T01:10:11.413Z,98430.31
2022-10-25T01:12:37.890Z,98432.13
2022-10-25T01:15:05.532Z,98427.69
2022-10-25T01:17:43.783Z,98429.41
2022-10-25T01:20:47.808Z,98424.84
2022-10-25T01:23:23.384Z,98430.91
2022-10-25T01:25:56.632Z,98429.06
2022-10-25T01:28:25.884Z,98429.06
2022-10-25T01:30:55.399Z,98435.97
2022-10-25T01:33:48.946Z,98436.72
2022-10-25T01:36:26.682Z,98435.75
2022-10-25T01:39:01.914Z,98430.59
2022-10-25T01:41:44.667Z,98445.66
2022-10-25T01:47:25.657Z,98435.91
2022-10-25T01:50:03.936Z,98448.41
2022-10-25T01:52:30.690Z,98442.19
2022-10-25T01:54:57.208Z,98450.94
2022-10-25T01:57:38.881Z,98458.81
2022-10-25T02:00:11.598Z,98451.72
2022-10-25T02:02:47.077Z,98458.97
2022-10-25T02:05:27.847Z,98467.03
2022-10-25T02:08:20.607Z,98475.91
2022-10-25T02:10:53.956Z,98478.69
2022-10-25T02:13:33.552Z,98476.88
2022-10-25T02:16:07.252Z,98472.50
2022-10-25T02:18:36.798Z,98471.63
2022-10-25T02:21:05.344Z,98471.81
2022-10-25T02:23:35.615Z,98474.56
2022-10-25T02:26:05.156Z,98469.31
2022-10-25T02:28:34.570Z,98473.75
2022-10-25T02:31:01.472Z,98467.47
2022-10-25T02:33:27.978Z,98454.22
2022-10-25T02:36:09.206Z,98450.72
2022-10-25T02:38:36.356Z,98450.72
2022-10-25T02:41:05.630Z,98455.16
2022-10-25T02:43:32.559Z,98468.41
2022-10-25T02:45:59.304Z,98455.03
2022-10-25T02:48:26.269Z,98458.50
2022-10-25T02:50:52.707Z,98454.09
2022-10-25T02:53:19.205Z,98454.94
2022-10-25T02:55:45.657Z,98459.44
2022-10-25T02:58:12.113Z,98457.75
2022-10-25T03:00:38.660Z,98457.78
2022-10-25T03:03:05.193Z,98463.81
2022-10-25T03:05:31.662Z,98462.91
2022-10-25T03:07:58.100Z,98465.56
2022-10-25T03:10:24.644Z,98470.94
2022-10-25T03:12:51.093Z,98463.00
2022-10-25T03:15:17.602Z,98471.06
2022-10-25T03:17:44.202Z,98477.31
2022-10-25T03:20:11.014Z,98476.47
2022-10-25T03:22:37.505Z,98471.22
2022-10-25T03:25:04.398Z,98478.38
2022-10-25T03:27:30.902Z,98481.03
2022-10-25T03:29:57.408Z,98486.28
2022-10-25T03:32:23.857Z,98480.00
2022-10-25T03:34:50.323Z,98481.81
2022-10-25T03:37:16.844Z,98475.66
2022-10-25T03:39:43.349Z,98479.28
2022-10-25T03:42:09.853Z,98479.19
2022-10-25T03:44:36.371Z,98487.09
2022-10-25T03:47:02.904Z,98487.06
2022-10-25T03:49:29.377Z,98480.88
2022-10-25T03:51:57.959Z,98491.53
2022-10-25T03:54:29.258Z,98496.84
2022-10-25T03:56:56.014Z,98488.91
2022-10-25T03:59:22.481Z,98487.97
2022-10-25T04:01:49.107Z,98483.50
2022-10-25T04:04:15.765Z,98481.69
2022-10-25T04:06:42.257Z,98492.34
2022-10-25T04:09:08.754Z,98498.59
2022-10-25T04:11:35.376Z,98494.16
2022-10-25T04:14:01.917Z,98508.31
2022-10-25T04:16:28.593Z,98507.41
2022-10-25T04:18:55.263Z,98511.78
2022-10-25T04:21:22.561Z,98504.63
2022-10-25T04:23:52.341Z,98512.66
2022-10-25T04:26:19.993Z,98513.56
2022-10-25T04:28:55.089Z,98510.06
2022-10-25T04:31:22.813Z,98515.38
2022-10-25T04:33:54.219Z,98512.72
2022-10-25T04:36:21.851Z,98512.72
2022-10-25T04:38:52.212Z,98525.06
2022-10-25T04:41:20.082Z,98514.50
2022-10-25T04:43:47.445Z,98510.97
2022-10-25T04:46:15.276Z,98517.25
2022-10-25T04:48:42.575Z,98514.50
2022-10-25T04:51:10.612Z,98523.38
2022-10-25T04:53:37.094Z,98521.63
2022-10-25T04:56:06.623Z,98526.94
2022-10-25T04:58:33.788Z,98529.59
2022-10-25T05:01:04.304Z,98528.75
2022-10-25T05:03:31.567Z,98526.09
2022-10-25T05:06:17.443Z,98521.69
2022-10-25T05:08:46.318Z,98527.97
2022-10-25T05:11:14.702Z,98530.63
2022-10-25T05:13:42.498Z,98528.75
2022-10-25T05:16:13.021Z,98533.13
2022-10-25T05:18:39.676Z,98540.16
2022-10-25T05:21:06.447Z,98535.72
2022-10-25T05:23:34.343Z,98548.22
2022-10-25T05:26:04.770Z,98550.88
2022-10-25T05:28:32.163Z,98549.13
2022-10-25T05:31:03.396Z,98560.72
2022-10-25T05:33:30.223Z,98553.78
2022-10-25T05:35:58.545Z,98560.03
2022-10-25T05:38:25.017Z,98566.19
2022-10-25T05:43:30.913Z,98561.66
2022-10-25T05:46:09.237Z,98554.44
2022-10-25T05:48:36.779Z,98565.97
2022-10-25T05:51:32.610Z,98572.22
2022-10-25T05:54:01.453Z,98578.34
2022-10-25T05:56:29.292Z,98565.06
2022-10-25T05:58:59.215Z,98575.72
2022-10-25T06:01:26.746Z,98579.28
2022-10-25T06:03:55.220Z,98578.38
2022-10-25T06:06:22.694Z,98585.47
2022-10-25T06:08:49.528Z,98590.72
2022-10-25T06:11:18.381Z,98588.06
2022-10-25T06:13:45.376Z,98590.72
2022-10-25T06:16:15.113Z,98593.44
2022-10-25T06:18:41.773Z,98599.63
2022-10-25T06:21:10.775Z,98600.53
2022-10-25T06:23:37.987Z,98603.16
2022-10-25T06:26:08.590Z,98609.34
2022-10-25T06:28:35.590Z,98616.41
2022-10-25T06:31:03.347Z,98624.41
2022-10-25T06:33:30.937Z,98625.28
2022-10-25T06:35:58.445Z,98622.59
2022-10-25T06:38:25.208Z,98636.69
2022-10-25T06:40:51.649Z,98641.19
2022-10-25T06:43:18.214Z,98648.25
2022-10-25T06:45:44.886Z,98649.06
2022-10-25T06:48:11.482Z,98638.41
2022-10-25T06:50:37.928Z,98645.47
2022-10-25T06:53:04.500Z,98646.22
2022-10-25T06:55:30.943Z,98659.47
2022-10-25T06:57:57.443Z,98662.13
2022-10-25T07:00:24.011Z,98665.66
2022-10-25T07:02:58.086Z,98673.63
2022-10-25T07:05:25.363Z,98673.56
2022-10-25T07:07:52.341Z,98665.53
2022-10-25T07:10:19.487Z,98669.94
2022-10-25T07:12:46.062Z,98666.38
2022-10-25T07:15:12.854Z,98667.25
2022-10-25T07:17:39.409Z,98672.56
2022-10-25T07:20:06.498Z,98664.63
2022-10-25T07:22:33.184Z,98672.63
2022-10-25T07:24:59.656Z,98664.63
2022-10-25T07:27:26.280Z,98682.31
2022-10-25T07:29:52.815Z,98676.03
2022-10-25T07:32:19.499Z,98677.75
2022-10-25T07:34:46.020Z,98683.09
2022-10-25T07:37:12.507Z,98673.34
2022-10-25T07:39:38.951Z,98676.84
2022-10-25T07:42:05.451Z,98684.84
2022-10-25T07:44:31.996Z,98691.94
2022-10-25T07:46:58.451Z,98702.50
2022-10-25T07:49:24.986Z,98695.44
2022-10-25T07:51:51.483Z,98699.84
2022-10-25T07:54:18.137Z,98702.50
2022-10-25T07:56:44.592Z,98696.34
2022-10-25T07:59:11.072Z,98702.56
2022-10-25T08:01:37.768Z,98710.63
2022-10-25T08:04:04.394Z,98700.91
2022-10-25T08:06:30.820Z,98717.81
2022-10-25T08:09:00.097Z,98714.25
2022-10-25T08:11:32.001Z,98722.28
2022-10-25T08:13:58.509Z,98724.91
2022-10-25T08:16:25.057Z,98718.66
2022-10-25T08:18:51.506Z,98726.66
2022-10-25T08:21:18.077Z,98719.59
2022-10-25T08:23:44.571Z,98731.06
2022-10-25T08:26:11.277Z,98721.34
2022-10-25T08:28:37.761Z,98740.00
2022-10-25T08:31:04.689Z,98747.09
2022-10-25T08:33:32.874Z,98746.19
2022-10-25T08:36:01.183Z,98752.38
2022-10-25T08:38:27.642Z,98755.97
2022-10-25T08:41:14.735Z,98748.03
2022-10-25T08:44:04.399Z,98761.44
2022-10-25T08:46:39.732Z,98759.72
2022-10-25T08:49:06.113Z,98767.63
2022-10-25T08:51:38.798Z,98770.31
2022-10-25T08:54:36.414Z,98758.72
2022-10-25T08:57:23.303Z,98776.19
2022-10-25T08:59:55.289Z,98768.72
2022-10-25T09:02:50.453Z,98766.75
2022-10-25T09:05:51.576Z,98768.81
2022-10-25T09:08:46.206Z,98776.66
2022-10-25T09:11:24.827Z,98764.59
2022-10-25T09:14:25.131Z,98768.75
2022-10-25T09:17:20.514Z,98783.59
2022-10-25T09:19:59.932Z,98785.94
2022-10-25T09:22:34.976Z,98789.44
2022-10-25T09:25:20.496Z,98788.63
2022-10-25T09:28:10.633Z,98793.78
2022-10-25T09:30:41.722Z,98791.28
2022-10-25T09:33:13.450Z,98794.13
2022-10-25T09:35:45.913Z,98796.66
2022-10-25T09:38:14.303Z,98793.09
2022-10-25T09:40:52.305Z,98792.94
2022-10-25T09:43:24.258Z,98791.03
2022-10-25T09:45:52.004Z,98792.69
2022-10-25T09:48:31.663Z,98813.41
2022-10-25T09:51:29.245Z,98804.50
2022-10-25T09:53:57.265Z,98807.28
2022-10-25T09:56:23.821Z,98813.97
2022-10-25T09:58:50.360Z,98813.66
2022-10-25T10:01:21.230Z,98807.66
2022-10-25T10:03:52.275Z,98804.44
2022-10-25T10:06:26.900Z,98798.81
2022-10-25T10:08:59.907Z,98807.00
2022-10-25T10:11:26.704Z,98816.97
2022-10-25T10:14:09.042Z,98813.66
2022-10-25T10:16:44.168Z,98810.97
2022-10-25T10:19:30.001Z,98808.91
2022-10-25T10:22:08.641Z,98809.59
2022-10-25T10:24:38.605Z,98812.00
2022-10-25T10:27:10.049Z,98815.25
2022-10-25T10:29:55.918Z,98814.44
2022-10-25T10:35:26.194Z,98822.31
2022-10-25T10:37:52.641Z,98818.50
2022-10-25T10:40:19.057Z,98816.13
2022-10-25T10:42:45.737Z,98824.38
2022-10-25T10:45:18.404Z,98816.03
2022-10-25T10:47:50.683Z,98821.25
2022-10-25T10:50:23.307Z,98824.19
2022-10-25T10:52:59.386Z,98818.38
2022-10-25T10:55:33.926Z,98814.41
2022-10-25T10:58:26.023Z,98822.56
2022-10-25T11:00:56.802Z,98822.59
2022-10-25T11:03:59.012Z,98835.69
2022-10-25T11:06:36.029Z,98833.78
2022-10-25T11:09:22.026Z,98834.03
2022-10-25T11:12:07.320Z,98836.72
2022-10-25T11:14:33.930Z,98839.47
2022-10-25T11:17:14.937Z,98836.94
2022-10-25T11:19:45.946Z,98841.00
2022-10-25T11:25:33.719Z,98840.03
2022-10-25T11:28:02.946Z,98845.81
2022-10-25T11:31:05.997Z,98853.69
2022-10-25T11:33:45.231Z,98855.91
2022-10-25T11:36:19.261Z,98849.66
2022-10-25T11:39:19.942Z,98847.91
2022-10-25T11:41:52.133Z,98847.91
2022-10-25T11:44:41.783Z,98847.88
2022-10-25T11:47:13.705Z,98851.72
2022-10-25T11:49:51.454Z,98846.94
2022-10-25T11:52:53.319Z,98844.31
2022-10-25T11:55:41.405Z,98849.88
2022-10-25T11:58:38.989Z,98851.31
2022-10-25T12:01:22.579Z,98854.56
2022-10-25T12:03:59.984Z,98851.03
2022-10-25T12:06:45.496Z,98860.34
2022-10-25T12:09:36.354Z,98853.16
2022-10-25T12:12:10.240Z,98857.34
2022-10-25T12:14:42.138Z,98862.22
2022-10-25T12:17:16.483Z,98863.81
2022-10-25T12:19:46.379Z,98861.03
2022-10-25T12:22:24.445Z,98866.44
2022-10-25T12:24:59.799Z,98860.59
2022-10-25T12:27:28.895Z,98852.38
2022-10-25T12:30:01.982Z,98864.47
2022-10-25T12:32:37.247Z,98864.00
2022-10-25T12:35:15.998Z,98860.44
2022-10-25T12:37:55.109Z,98865.09
2022-10-25T12:40:26.748Z,98867.44
2022-10-25T12:43:05.629Z,98866.09
2022-10-25T12:45:44.070Z,98857.28
2022-10-25T12:48:31.681Z,98866.75
2022-10-25T12:51:24.544Z,98863.09
2022-10-25T12:53:50.977Z,98864.53
2022-10-25T12:56:44.855Z,98863.25
2022-10-25T12:59:20.415Z,98867.94
2022-10-25T13:01:56.443Z,98872.00
2022-10-25T13:04:56.396Z,98873.25
2022-10-25T13:07:24.169Z,98868.75
2022-10-25T13:09:51.615Z,98871.84
2022-10-25T13:12:22.595Z,98877.47
2022-10-25T13:14:52.777Z,98867.50
2022-10-25T13:17:39.228Z,98871.56
2022-10-25T13:20:22.698Z,98867.91
2022-10-25T13:22:49.786Z,98863.50
2022-10-25T13:25:38.365Z,98863.41
2022-10-25T13:28:10.961Z,98870.28
2022-10-25T13:30:37.467Z,98868.41
2022-10-25T13:33:19.324Z,98870.84
2022-10-25T13:35:48.507Z,98875.31
2022-10-25T13:38:39.675Z,98862.47
2022-10-25T13:41:12.624Z,98877.69
2022-10-25T13:43:58.053Z,98879.69
2022-10-25T13:46:30.768Z,98877.25
2022-10-25T13:48:57.796Z,98869.41
2022-10-25T13:51:24.395Z,98871.34
2022-10-25T13:53:53.573Z,98869.50
2022-10-25T13:56:22.986Z,98874.06
2022-10-25T13:58:51.542Z,98875.88
2022-10-25T14:01:18.188Z,98877.63
2022-10-25T14:03:50.810Z,98884.94
2022-10-25T14:06:27.142Z,98884.41
2022-10-25T14:09:00.972Z,98887.41
2022-10-25T14:11:37.315Z,98884.72
2022-10-25T14:14:14.093Z,98886.41
2022-10-25T14:16:52.819Z,98874.72
2022-10-25T14:19:45.307Z,98879.84
2022-10-25T14:22:17.671Z,98886.00
2022-10-25T14:24:48.988Z,98884.22
2022-10-25T14:27:44.791Z,98890.63
2022-10-25T14:30:12.254Z,98889.00
2022-10-25T14:32:38.915Z,98892.66
2022-10-25T14:35:06.396Z,98894.56
2022-10-25T14:37:33.120Z,98898.25
2022-10-25T14:39:59.612Z,98894.81
2022-10-25T14:42:26.132Z,98893.97
2022-10-25T14:44:52.965Z,98898.44
2022-10-25T14:47:33.591Z,98902.97
2022-10-25T14:50:01.480Z,98900.38
2022-10-25T14:52:31.102Z,98900.41
2022-10-25T14:55:04.431Z,98907.59
2022-10-25T14:57:33.255Z,98904.88
2022-10-25T15:00:04.781Z,98906.63
2022-10-25T15:02:37.298Z,98910.13
2022-10-25T15:05:05.067Z,98901.38
2022-10-25T15:07:36.071Z,98907.59
2022-10-25T15:12:35.917Z,98906.75
2022-10-25T15:15:44.034Z,98912.09
2022-10-25T15:18:23.128Z,98910.47
2022-10-25T15:20:50.433Z,98916.06
2022-10-25T15:23:21.677Z,98908.38
2022-10-25T15:25:48.160Z,98915.78
2022-10-25T15:28:17.550Z,98918.50
2022-10-25T15:30:50.155Z,98905.47
2022-10-25T15:33:25.455Z,98896.91
2022-10-25T15:35:53.801Z,98916.50
2022-10-25T15:38:20.284Z,98910.25
2022-10-25T15:40:48.190Z,98911.19
2022-10-25T15:43:15.440Z,98913.03
2022-10-25T15:45:41.997Z,98910.47
2022-10-25T15:48:14.950Z,98906.94
2022-10-25T15:50:46.912Z,98901.84
2022-10-25T15:53:13.275Z,98902.81
2022-10-25T15:55:39.753Z,98902.16
2022-10-25T15:58:09.769Z,98911.97
2022-10-25T16:00:37.830Z,98907.50
2022-10-25T16:03:05.875Z,98903.88
2022-10-25T16:05:35.034Z,98910.16
2022-10-25T16:08:02.441Z,98906.59
2022-10-25T16:10:30.480Z,98901.41
2022-10-25T16:13:14.221Z,98909.44
2022-10-25T16:15:40.768Z,98899.91
2022-10-25T16:18:07.225Z,98912.47
2022-10-25T16:20:33.835Z,98918.81
2022-10-25T16:23:00.372Z,98911.81
2022-10-25T16:25:30.596Z,98916.38
2022-10-25T16:28:00.102Z,98924.41
2022-10-25T16:30:30.639Z,98929.66
2022-10-25T16:32:57.074Z,98934.19
2022-10-25T16:35:24.705Z,98932.41
2022-10-25T16:37:52.081Z,98936.03
2022-10-25T16:40:20.395Z,98925.31
2022-10-25T16:42:47.526Z,98932.34
2022-10-25T16:45:30.913Z,98935.00
2022-10-25T16:47:58.313Z,98926.91
2022-10-25T16:50:27.097Z,98925.13
2022-10-25T16:52:56.986Z,98932.31
2022-10-25T16:55:23.832Z,98936.91
2022-10-25T16:57:50.717Z,98935.28
2022-10-25T17:00:17.726Z,98942.41
2022-10-25T17:02:44.228Z,98938.78
2022-10-25T17:05:19.020Z,98929.00
2022-10-25T17:07:45.912Z,98928.94
2022-10-25T17:10:17.654Z,98927.97
2022-10-25T17:12:49.832Z,98933.31
2022-10-25T17:15:18.109Z,98933.38
2022-10-25T17:17:48.170Z,98940.44
2022-10-25T17:20:16.423Z,98931.47
2022-10-25T17:22:43.457Z,98940.25
2022-10-25T17:25:11.504Z,98946.28
2022-10-25T17:27:40.520Z,98940.84
2022-10-25T17:30:08.803Z,98936.28
2022-10-25T17:32:35.906Z,98932.69
2022-10-25T17:35:02.465Z,98937.94
2022-10-25T17:37:29.278Z,98939.75
2022-10-25T17:39:55.705Z,98940.63
2022-10-25T17:42:22.295Z,98942.47
2022-10-25T17:44:49.224Z,98946.06
2022-10-25T17:47:16.117Z,98943.44
2022-10-25T17:49:42.758Z,98945.25
2022-10-25T17:52:09.865Z,98940.00
2022-10-25T17:54:38.535Z,98953.41
2022-10-25T17:57:05.883Z,98946.47
2022-10-25T17:59:33.545Z,98951.00
2022-10-25T18:02:00.187Z,98956.44
2022-10-25T18:04:27.156Z,98953.81
2022-10-25T18:06:53.612Z,98963.59
2022-10-25T18:09:21.815Z,98963.59
2022-10-25T18:11:48.412Z,98953.78
2022-10-25T18:14:15.011Z,98958.19
2022-10-25T18:16:41.644Z,98950.91
2022-10-25T18:19:13.275Z,98956.34
2022-10-25T18:21:41.231Z,98951.94
2022-10-25T18:24:08.230Z,98954.69
2022-10-25T18:26:35.067Z,98955.63
2022-10-25T18:29:01.557Z,98960.03
2022-10-25T18:31:28.468Z,98952.88
2022-10-25T18:33:56.126Z,98946.63
2022-10-25T18:36:22.744Z,98957.38
2022-10-25T18:38:49.585Z,98955.59
2022-10-25T18:41:22.832Z,98951.25
2022-10-25T18:43:49.775Z,98946.91
2022-10-25T18:46:16.805Z,98949.53
2022-10-25T18:48:45.306Z,98955.75
2022-10-25T18:51:13.498Z,98949.66
2022-10-25T18:53:40.168Z,98956.00
2022-10-25T18:56:11.304Z,98954.31
2022-10-25T18:58:38.202Z,98951.59
2022-10-25T19:01:20.817Z,98950.75
2022-10-25T19:03:47.420Z,98935.72
2022-10-25T19:06:14.205Z,98937.59
2022-10-25T19:08:40.723Z,98942.03
2022-10-25T19:11:10.710Z,98940.22
2022-10-25T19:13:37.998Z,98936.63
2022-10-25T19:16:04.833Z,98940.16
2022-10-25T19:18:32.842Z,98940.16
2022-10-25T19:21:07.292Z,98946.41
2022-10-25T19:23:34.256Z,98943.81
2022-10-25T19:26:09.810Z,98947.38
2022-10-25T19:28:36.737Z,98948.28
2022-10-25T19:31:07.188Z,98951.03
2022-10-25T19:33:33.854Z,98945.81
2022-10-25T19:36:11.419Z,98951.19
2022-10-25T19:38:38.803Z,98949.44
2022-10-25T19:41:08.914Z,98956.53
2022-10-25T19:43:36.479Z,98945.88
2022-10-25T19:46:05.336Z,98939.59
2022-10-25T19:48:32.758Z,98950.16
2022-10-25T19:51:25.305Z,98941.25
2022-10-25T19:53:52.211Z,98947.34
2022-10-25T19:56:23.098Z,98944.66
2022-10-25T19:58:50.105Z,98938.38
2022-10-25T20:01:21.111Z,98940.97
2022-10-25T20:03:50.881Z,98935.66
2022-10-25T20:06:23.512Z,98928.59
2022-10-25T20:08:52.483Z,98938.34
2022-10-25T20:11:19.821Z,98939.25
2022-10-25T20:13:46.526Z,98937.41
2022-10-25T20:16:16.561Z,98941.75
2022-10-25T20:18:43.069Z,98936.41
2022-10-25T20:21:11.463Z,98934.63
2022-10-25T20:23:39.094Z,98939.94
2022-10-25T20:26:13.118Z,98939.06
2022-10-25T20:28:39.731Z,98936.41
2022-10-25T20:31:06.695Z,98942.56
2022-10-25T20:33:34.645Z,98941.75
2022-10-25T20:36:03.141Z,98938.25
2022-10-25T20:38:30.946Z,98944.47
2022-10-25T20:41:25.212Z,98940.81
2022-10-25T20:43:54.642Z,98948.84
2022-10-25T20:46:23.008Z,98951.50
2022-10-25T20:48:50.891Z,98953.34
2022-10-25T20:51:17.692Z,98959.56
2022-10-25T20:53:45.746Z,98960.50
2022-10-25T20:56:13.180Z,98967.59
2022-10-25T20:58:40.642Z,98968.50
2022-10-25T21:01:07.186Z,98962.41
2022-10-25T21:03:34.606Z,98969.47
2022-10-25T21:06:04.122Z,98969.56
2022-10-25T21:08:31.558Z,98966.94
2022-10-25T21:11:02.590Z,98966.03
2022-10-25T21:13:31.380Z,98974.88
2022-10-25T21:15:58.665Z,98976.56
2022-10-25T21:18:29.093Z,98974.88
2022-10-25T21:21:04.277Z,98974.91
2022-10-25T21:23:31.189Z,98975.84
2022-10-25T21:26:07.783Z,98977.72
2022-10-25T21:28:37.233Z,98978.59
2022-10-25T21:31:07.185Z,98977.66
2022-10-25T21:33:33.737Z,98977.59
2022-10-25T21:36:05.640Z,98966.97
2022-10-25T21:38:32.182Z,98967.03
2022-10-25T21:41:07.984Z,98965.38
2022-10-25T21:43:34.613Z,98964.50
2022-10-25T21:46:04.830Z,98962.91
2022-10-25T21:48:31.282Z,98962.88
2022-10-25T21:51:00.658Z,98969.03
2022-10-25T21:53:27.379Z,98966.44
2022-10-25T21:56:17.936Z,98965.59
2022-10-25T21:58:46.853Z,98964.78
2022-10-25T22:01:16.112Z,98959.47
2022-10-25T22:03:43.115Z,98963.84
2022-10-25T22:06:14.487Z,98962.06
2022-10-25T22:08:41.862Z,98959.41
2022-10-25T22:11:15.394Z,98953.28
2022-10-25T22:13:42.344Z,98962.13
2022-10-25T22:16:12.919Z,98964.78
2022-10-25T22:18:39.392Z,98970.97
2022-10-25T22:21:18.031Z,98967.41
2022-10-25T22:23:44.517Z,98974.50
2022-10-25T22:26:13.357Z,98963.91
2022-10-25T22:28:41.274Z,98964.78
2022-10-25T22:31:11.272Z,98962.97
2022-10-25T22:33:38.514Z,98963.84
2022-10-25T22:36:28.220Z,98962.97
2022-10-25T22:38:55.380Z,98954.09
2022-10-25T22:41:26.450Z,98953.16
2022-10-25T22:43:53.737Z,98950.50
2022-10-25T22:46:24.748Z,98943.47
2022-10-25T22:48:53.717Z,98941.69
2022-10-25T22:51:21.199Z,98934.66
2022-10-25T22:53:47.896Z,98940.81
2022-10-25T22:56:17.304Z,98944.41
2022-10-25T22:58:51.675Z,98940.03
2022-10-25T23:01:23.872Z,98935.66
2022-10-25T23:03:54.510Z,98940.97
2022-10-25T23:06:32.819Z,98947.16
2022-10-25T23:09:04.840Z,98946.28
2022-10-25T23:11:32.962Z,98948.03
2022-10-25T23:14:00.722Z,98948.97
2022-10-25T23:16:28.114Z,98948.06
2022-10-25T23:18:55.045Z,98948.94
2022-10-25T23:21:30.068Z,98942.75
2022-10-25T23:24:00.165Z,98946.25
2022-10-25T23:26:29.353Z,98950.66
2022-10-25T23:28:56.606Z,98944.47
2022-10-25T23:31:24.294Z,98941.84
2022-10-25T23:33:53.063Z,98941.81
2022-10-25T23:36:24.553Z,98947.13
2022-10-25T23:38:52.588Z,98948.91
2022-10-25T23:41:20.599Z,98948.91
2022-10-25T23:43:47.113Z,98946.25
2022-10-25T23:46:14.233Z,98948.03
2022-10-25T23:48:41.476Z,98946.25
2022-10-25T23:51:10.503Z,98948.88
2022-10-25T23:53:40.562Z,98948.00
2022-10-25T23:56:09.672Z,98948.84
2022-10-25T23:58:36.107Z,98940.00
